createdAt,value
2022-09-18T00:02:02.803Z,1.63
2022-09-18T00:04:52.962Z,1.80
2022-09-18T00:07:42.131Z,2.37
2022-09-18T00:10:30.897Z,2.07
2022-09-18T00:13:19.696Z,2.67
2022-09-18T00:16:09.654Z,2.57
2022-09-18T00:18:58.587Z,2.33
2022-09-18T00:21:49.841Z,1.97
2022-09-18T00:24:38.952Z,1.97
2022-09-18T00:27:27.961Z,2.43
2022-09-18T00:30:17.179Z,2.70
2022-09-18T00:33:06.118Z,2.57
2022-09-18T00:35:54.905Z,3.00
2022-09-18T00:38:45.186Z,3.63
2022-09-18T00:41:35.094Z,2.27
2022-09-18T00:44:30.950Z,2.40
2022-09-18T00:47:23.327Z,2.47
2022-09-18T00:50:14.823Z,2.30
2022-09-18T00:53:05.843Z,2.23
2022-09-18T00:55:56.337Z,3.13
2022-09-18T00:58:45.995Z,2.73
2022-09-18T01:01:34.812Z,2.00
2022-09-18T01:04:23.938Z,2.63
2022-09-18T01:07:16.435Z,2.90
2022-09-18T01:10:12.295Z,4.37
2022-09-18T01:13:04.477Z,3.83
2022-09-18T01:15:57.525Z,4.70
2022-09-18T01:18:52.489Z,4.80
2022-09-18T01:21:45.303Z,7.00
2022-09-18T01:24:41.286Z,7.60
2022-09-18T01:27:34.334Z,8.83
2022-09-18T01:30:24.459Z,7.90
2022-09-18T01:33:16.549Z,7.50
2022-09-18T01:36:08.604Z,7.73
2022-09-18T01:38:59.039Z,6.83
2022-09-18T01:41:51.266Z,7.77
2022-09-18T01:44:42.810Z,5.90
2022-09-18T01:47:41.306Z,4.90
2022-09-18T01:50:32.430Z,6.27
2022-09-18T01:53:22.665Z,6.03
2022-09-18T01:56:13.230Z,6.80
2022-09-18T01:59:03.638Z,7.60
2022-09-18T02:01:53.262Z,7.00
2022-09-18T02:04:45.988Z,6.77
2022-09-18T02:07:37.289Z,7.27
2022-09-18T02:10:26.902Z,5.50
2022-09-18T02:13:18.086Z,5.50
2022-09-18T02:16:09.216Z,5.13
2022-09-18T02:18:59.355Z,4.83
2022-09-18T02:21:49.979Z,4.20
2022-09-18T02:24:39.562Z,4.60
2022-09-18T02:27:29.436Z,4.90
2022-09-18T02:30:18.466Z,4.23
2022-09-18T02:33:22.151Z,4.13
2022-09-18T02:36:23.728Z,6.20
2022-09-18T02:39:21.171Z,4.90
2022-09-18T02:42:17.964Z,3.80
2022-09-18T02:45:10.390Z,3.60
2022-09-18T02:48:17.341Z,3.73
2022-09-18T02:51:09.629Z,3.63
2022-09-18T02:54:00.792Z,3.70
2022-09-18T02:56:52.954Z,4.17
2022-09-18T02:59:43.643Z,5.37
2022-09-18T03:02:32.692Z,4.37
2022-09-18T03:05:21.554Z,4.57
2022-09-18T03:08:10.380Z,5.00
2022-09-18T03:10:59.157Z,4.83
2022-09-18T03:13:49.389Z,4.40
2022-09-18T03:16:38.248Z,5.10
2022-09-18T03:19:27.095Z,5.30
2022-09-18T03:22:15.967Z,5.23
2022-09-18T03:25:04.963Z,5.00
2022-09-18T03:27:55.870Z,5.77
2022-09-18T03:30:46.503Z,5.70
2022-09-18T03:33:35.340Z,6.77
2022-09-18T03:36:24.113Z,6.03
2022-09-18T03:39:14.269Z,5.83
2022-09-18T03:42:04.602Z,5.27
2022-09-18T03:44:53.842Z,5.27
2022-09-18T03:47:43.975Z,5.30
2022-09-18T03:50:32.750Z,5.63
2022-09-18T03:53:21.686Z,6.87
2022-09-18T03:56:10.567Z,6.70
2022-09-18T03:58:59.342Z,5.93
2022-09-18T04:01:48.707Z,6.57
2022-09-18T04:04:38.950Z,6.50
2022-09-18T04:07:27.760Z,6.20
2022-09-18T04:10:16.786Z,7.27
2022-09-18T04:13:05.570Z,7.23
2022-09-18T04:15:54.439Z,6.93
2022-09-18T04:18:43.790Z,7.93
2022-09-18T04:21:33.956Z,8.87
2022-09-18T04:24:22.763Z,8.20
2022-09-18T04:27:11.619Z,7.33
2022-09-18T04:30:00.409Z,7.10
2022-09-18T04:32:49.178Z,7.20
2022-09-18T04:35:37.980Z,7.67
2022-09-18T04:38:29.677Z,7.73
2022-09-18T04:41:18.506Z,6.60
2022-09-18T04:44:07.301Z,7.37
2022-09-18T04:46:56.129Z,7.83
2022-09-18T04:49:44.987Z,8.40
2022-09-18T04:52:33.774Z,9.80
2022-09-18T04:55:23.910Z,8.70
2022-09-18T04:58:12.736Z,10.67
2022-09-18T05:01:01.966Z,10.43
2022-09-18T05:03:50.773Z,10.67
2022-09-18T05:06:39.806Z,9.60
2022-09-18T05:09:28.815Z,8.40
2022-09-18T05:12:19.119Z,7.70
2022-09-18T05:15:08.313Z,7.07
2022-09-18T05:18:00.879Z,6.00
2022-09-18T05:20:49.662Z,6.90
2022-09-18T05:23:38.430Z,6.37
2022-09-18T05:26:27.862Z,6.47
2022-09-18T05:29:17.997Z,6.60
2022-09-18T05:32:07.044Z,6.53
2022-09-18T05:34:55.854Z,5.07
2022-09-18T05:37:44.606Z,5.03
2022-09-18T05:40:35.086Z,4.80
2022-09-18T05:43:23.893Z,4.97
2022-09-18T05:46:15.072Z,5.47
2022-09-18T05:49:06.258Z,4.70
2022-09-18T05:51:55.385Z,4.53
2022-09-18T05:54:44.184Z,4.40
2022-09-18T05:57:32.967Z,4.60
2022-09-18T06:00:21.905Z,3.87
2022-09-18T06:03:13.271Z,4.57
2022-09-18T06:06:02.276Z,4.20
2022-09-18T06:08:51.070Z,4.17
2022-09-18T06:11:39.848Z,4.30
2022-09-18T06:14:28.627Z,4.43
2022-09-18T06:17:17.409Z,4.30
2022-09-18T06:20:08.631Z,5.77
2022-09-18T06:23:00.214Z,6.17
2022-09-18T06:25:49.003Z,4.93
2022-09-18T06:28:37.793Z,4.90
2022-09-18T06:31:26.632Z,5.47
2022-09-18T06:34:15.420Z,6.10
2022-09-18T06:37:05.595Z,6.20
2022-09-18T06:39:54.504Z,7.87
2022-09-18T06:42:46.051Z,7.67
2022-09-18T06:45:35.167Z,8.63
2022-09-18T06:48:24.044Z,8.60
2022-09-18T06:51:12.813Z,8.10
2022-09-18T06:54:03.114Z,8.67
2022-09-18T06:56:52.052Z,7.90
2022-09-18T06:59:40.818Z,8.83
2022-09-18T07:02:29.675Z,7.73
2022-09-18T07:05:18.471Z,8.20
2022-09-18T07:08:07.267Z,8.70
2022-09-18T07:11:01.525Z,7.60
2022-09-18T07:13:51.486Z,6.50
2022-09-18T07:16:40.405Z,7.50
2022-09-18T07:19:29.242Z,6.60
2022-09-18T07:22:18.042Z,7.27
2022-09-18T07:25:07.834Z,7.50
2022-09-18T07:27:57.958Z,6.53
2022-09-18T07:30:46.845Z,6.40
2022-09-18T07:33:35.679Z,7.20
2022-09-18T07:36:24.437Z,6.50
2022-09-18T07:39:13.218Z,6.00
2022-09-18T07:42:08.812Z,7.03
2022-09-18T07:44:59.568Z,7.70
2022-09-18T07:47:48.317Z,7.47
2022-09-18T07:50:37.077Z,8.23
2022-09-18T07:53:25.883Z,7.40
2022-09-18T07:56:14.680Z,7.73
2022-09-18T07:59:03.423Z,7.93
2022-09-18T08:01:55.671Z,7.63
2022-09-18T08:04:44.901Z,7.00
2022-09-18T08:07:33.645Z,7.50
2022-09-18T08:10:22.525Z,6.60
2022-09-18T08:13:11.706Z,7.53
2022-09-18T08:16:01.086Z,5.60
2022-09-18T08:18:51.335Z,5.80
2022-09-18T08:21:40.131Z,5.40
2022-09-18T08:24:28.955Z,5.60
2022-09-18T08:27:17.741Z,5.60
2022-09-18T08:30:07.561Z,5.80
2022-09-18T08:32:59.124Z,6.37
2022-09-18T08:35:49.256Z,7.67
2022-09-18T08:38:38.054Z,7.30
2022-09-18T08:41:31.426Z,6.43
2022-09-18T08:44:24.190Z,3.63
2022-09-18T08:47:16.084Z,4.30
2022-09-18T08:50:06.031Z,4.40
2022-09-18T08:52:59.468Z,5.33
2022-09-18T08:55:50.619Z,4.33
2022-09-18T08:58:41.875Z,3.50
2022-09-18T09:01:34.418Z,3.90
2022-09-18T09:04:28.294Z,3.00
2022-09-18T09:07:22.039Z,4.40
2022-09-18T09:10:24.236Z,2.73
2022-09-18T09:13:33.928Z,2.40
2022-09-18T09:16:27.539Z,2.20
2022-09-18T09:19:27.286Z,2.13
2022-09-18T09:22:18.700Z,1.90
2022-09-18T09:25:12.802Z,2.13
2022-09-18T09:28:05.267Z,2.80
2022-09-18T09:30:56.517Z,3.10
2022-09-18T09:33:50.572Z,2.80
2022-09-18T09:36:40.024Z,2.97
2022-09-18T09:39:31.044Z,3.23
2022-09-18T09:42:22.699Z,3.50
2022-09-18T09:45:15.131Z,2.53
2022-09-18T09:48:08.407Z,2.30
2022-09-18T09:51:00.254Z,2.43
2022-09-18T09:53:49.079Z,2.20
2022-09-18T09:56:39.893Z,2.30
2022-09-18T09:59:33.332Z,1.60
2022-09-18T10:02:35.026Z,2.00
2022-09-18T10:05:27.519Z,1.77
2022-09-18T10:08:18.546Z,1.20
2022-09-18T10:11:11.162Z,1.13
2022-09-18T10:14:02.213Z,1.10
2022-09-18T10:16:52.975Z,0.93
2022-09-18T10:19:44.445Z,1.00
2022-09-18T10:22:34.927Z,1.00
2022-09-18T10:25:29.738Z,0.83
2022-09-18T10:28:18.691Z,0.90
2022-09-18T10:31:10.437Z,0.97
2022-09-18T10:33:59.335Z,1.00
2022-09-18T10:36:49.664Z,0.70
2022-09-18T10:39:38.778Z,0.83
2022-09-18T10:42:28.908Z,1.03
2022-09-18T10:45:22.778Z,0.80
2022-09-18T10:48:14.631Z,0.90
2022-09-18T10:51:04.430Z,0.70
2022-09-18T10:54:05.185Z,1.00
2022-09-18T10:56:54.175Z,0.87
2022-09-18T10:59:42.952Z,1.00
2022-09-18T11:02:35.096Z,1.00
2022-09-18T11:05:24.765Z,1.17
2022-09-18T11:08:16.285Z,1.00
2022-09-18T11:11:07.857Z,1.50
2022-09-18T11:13:59.139Z,1.40
2022-09-18T11:16:49.816Z,1.50
2022-09-18T11:19:40.170Z,1.50
2022-09-18T11:22:33.667Z,1.10
2022-09-18T11:25:23.674Z,0.90
2022-09-18T11:28:22.589Z,1.53
2022-09-18T11:31:15.686Z,1.53
2022-09-18T11:34:06.523Z,1.13
2022-09-18T11:36:57.730Z,1.87
2022-09-18T11:39:51.594Z,1.50
2022-09-18T11:42:43.435Z,2.60
2022-09-18T11:45:45.231Z,1.70
2022-09-18T11:48:37.326Z,1.60
2022-09-18T11:51:30.175Z,1.63
2022-09-18T11:54:23.719Z,2.00
2022-09-18T11:57:17.466Z,1.37
2022-09-18T12:00:08.915Z,1.77
2022-09-18T12:03:03.039Z,1.40
2022-09-18T12:05:54.864Z,1.63
2022-09-18T12:08:45.539Z,1.50
2022-09-18T12:11:37.862Z,1.57
2022-09-18T12:14:32.085Z,1.20
2022-09-18T12:17:24.224Z,1.70
2022-09-18T12:20:18.798Z,1.20
2022-09-18T12:23:13.399Z,1.17
2022-09-18T12:26:07.141Z,1.90
2022-09-18T12:29:05.095Z,1.63
2022-09-18T12:31:59.722Z,2.00
2022-09-18T12:34:51.075Z,2.03
2022-09-18T12:37:48.899Z,1.30
2022-09-18T12:40:43.817Z,1.20
2022-09-18T12:43:37.986Z,0.90
2022-09-18T12:46:33.168Z,1.37
2022-09-18T12:49:30.140Z,1.33
2022-09-18T12:52:27.551Z,2.10
2022-09-18T12:55:25.427Z,1.60
2022-09-18T12:58:20.288Z,1.10
2022-09-18T13:01:24.113Z,1.30
2022-09-18T13:04:18.297Z,1.20
2022-09-18T13:07:09.420Z,0.80
2022-09-18T13:10:01.172Z,1.00
2022-09-18T13:12:55.220Z,1.73
2022-09-18T13:15:46.644Z,0.97
2022-09-18T13:18:39.549Z,2.73
2022-09-18T13:21:30.206Z,1.57
2022-09-18T13:24:21.757Z,1.00
2022-09-18T13:27:12.466Z,1.30
2022-09-18T13:30:14.863Z,1.17
2022-09-18T13:33:04.815Z,1.10
2022-09-18T13:35:55.950Z,1.50
2022-09-18T13:38:46.303Z,1.60
2022-09-18T13:41:42.822Z,1.93
2022-09-18T13:44:33.097Z,1.73
2022-09-18T13:47:24.545Z,1.43
2022-09-18T13:50:18.577Z,1.30
2022-09-18T13:53:07.689Z,1.37
2022-09-18T13:55:56.502Z,1.60
2022-09-18T13:58:49.988Z,1.53
2022-09-18T14:01:59.444Z,1.17
2022-09-18T14:04:58.829Z,1.13
2022-09-18T14:07:52.451Z,1.27
2022-09-18T14:11:05.081Z,1.30
2022-09-18T14:13:55.806Z,1.27
2022-09-18T14:16:45.945Z,1.87
2022-09-18T14:19:36.903Z,1.30
2022-09-18T14:22:30.019Z,1.57
2022-09-18T14:25:38.937Z,0.90
2022-09-18T14:28:28.086Z,1.10
2022-09-18T14:31:20.224Z,2.20
2022-09-18T14:34:14.208Z,2.83
2022-09-18T14:37:04.469Z,2.10
2022-09-18T14:39:55.378Z,1.70
2022-09-18T14:42:44.558Z,1.30
2022-09-18T14:45:33.611Z,1.40
2022-09-18T14:48:24.014Z,2.20
2022-09-18T14:51:19.166Z,1.50
2022-09-18T14:54:17.460Z,1.80
2022-09-18T14:57:07.815Z,1.80
2022-09-18T14:59:58.356Z,1.60
2022-09-18T15:02:50.853Z,1.40
2022-09-18T15:05:39.715Z,1.40
2022-09-18T15:08:28.546Z,1.90
2022-09-18T15:11:18.617Z,1.53
2022-09-18T15:14:20.455Z,1.70
2022-09-18T15:17:17.139Z,3.03
2022-09-18T15:20:15.585Z,2.13
2022-09-18T15:23:18.573Z,1.37
2022-09-18T15:26:09.374Z,2.43
2022-09-18T15:28:58.948Z,1.67
2022-09-18T15:31:49.356Z,1.53
2022-09-18T15:34:41.088Z,1.43
2022-09-18T15:37:30.305Z,1.80
2022-09-18T15:40:20.588Z,1.57
2022-09-18T15:43:27.525Z,1.50
2022-09-18T15:46:26.272Z,1.70
2022-09-18T15:49:29.919Z,2.30
2022-09-18T15:52:33.674Z,2.33
2022-09-18T15:55:23.220Z,2.00
2022-09-18T15:58:20.618Z,2.23
2022-09-18T16:01:16.165Z,2.73
2022-09-18T16:04:09.897Z,2.67
2022-09-18T16:07:01.367Z,1.80
2022-09-18T16:09:50.992Z,2.53
2022-09-18T16:12:40.761Z,1.97
2022-09-18T16:15:29.992Z,1.60
2022-09-18T16:18:25.516Z,2.10
2022-09-18T16:21:14.494Z,2.27
2022-09-18T16:24:04.678Z,1.80
2022-09-18T16:26:53.498Z,2.00
2022-09-18T16:29:42.359Z,1.33
2022-09-18T16:32:31.150Z,1.50
2022-09-18T16:35:19.949Z,1.60
2022-09-18T16:38:10.192Z,1.77
2022-09-18T16:41:00.374Z,1.77
2022-09-18T16:43:49.667Z,1.73
2022-09-18T16:46:39.906Z,1.87
2022-09-18T16:49:30.093Z,2.00
2022-09-18T16:52:19.270Z,2.23
2022-09-18T16:55:08.322Z,2.60
2022-09-18T16:57:58.502Z,2.10
2022-09-18T17:00:47.466Z,2.23
2022-09-18T17:03:36.287Z,2.03
2022-09-18T17:06:25.063Z,1.80
2022-09-18T17:09:14.308Z,2.17
2022-09-18T17:12:03.322Z,2.13
2022-09-18T17:14:53.690Z,1.63
2022-09-18T17:17:42.677Z,2.20
2022-09-18T17:20:31.458Z,1.60
2022-09-18T17:23:20.289Z,1.83
2022-09-18T17:26:10.874Z,1.77
2022-09-18T17:29:00.047Z,1.40
2022-09-18T17:31:50.326Z,1.53
2022-09-18T17:34:39.168Z,2.10
2022-09-18T17:37:29.466Z,1.37
2022-09-18T17:40:19.128Z,2.03
2022-09-18T17:43:07.962Z,2.30
2022-09-18T17:45:57.101Z,1.60
2022-09-18T17:48:47.452Z,3.07
2022-09-18T17:51:36.258Z,2.20
2022-09-18T17:54:25.046Z,3.37
2022-09-18T17:57:13.830Z,3.80
2022-09-18T18:00:02.933Z,2.10
2022-09-18T18:02:52.275Z,2.30
2022-09-18T18:05:42.455Z,2.50
2022-09-18T18:08:31.758Z,2.50
2022-09-18T18:11:22.496Z,2.50
2022-09-18T18:14:11.336Z,2.33
2022-09-18T18:17:00.881Z,2.30
2022-09-18T18:19:51.443Z,2.17
2022-09-18T18:22:41.595Z,2.83
2022-09-18T18:25:30.468Z,2.50
2022-09-18T18:28:19.236Z,2.50
2022-09-18T18:31:11.286Z,2.63
2022-09-18T18:34:00.269Z,1.90
2022-09-18T18:36:53.655Z,2.30
2022-09-18T18:39:43.801Z,2.03
2022-09-18T18:42:32.626Z,1.93
2022-09-18T18:45:22.013Z,2.20
2022-09-18T18:48:11.247Z,2.37
2022-09-18T18:51:00.098Z,2.17
2022-09-18T18:53:48.877Z,2.40
2022-09-18T18:56:40.317Z,2.10
2022-09-18T18:59:29.418Z,2.70
2022-09-18T19:02:18.318Z,2.63
2022-09-18T19:05:09.154Z,1.97
2022-09-18T19:07:57.961Z,2.53
2022-09-18T19:10:47.699Z,2.00
2022-09-18T19:13:41.261Z,2.40
2022-09-18T19:16:32.086Z,2.60
2022-09-18T19:19:22.098Z,1.97
2022-09-18T19:22:18.738Z,3.17
2022-09-18T19:25:08.761Z,2.70
2022-09-18T19:27:57.666Z,3.00
2022-09-18T19:30:48.573Z,2.97
2022-09-18T19:33:37.795Z,3.70
2022-09-18T19:36:28.679Z,4.17
2022-09-18T19:39:18.288Z,3.90
2022-09-18T19:42:10.109Z,3.70
2022-09-18T19:45:01.606Z,4.00
2022-09-18T19:47:52.467Z,3.77
2022-09-18T19:50:41.595Z,3.90
2022-09-18T19:53:31.024Z,3.90
2022-09-18T19:56:41.592Z,4.27
2022-09-18T19:59:28.763Z,3.83
2022-09-18T20:02:18.295Z,4.43
2022-09-18T20:05:10.352Z,3.40
2022-09-18T20:08:01.227Z,2.90
2022-09-18T20:10:50.242Z,3.13
2022-09-18T20:13:39.029Z,2.73
2022-09-18T20:16:28.100Z,3.30
2022-09-18T20:19:17.088Z,2.97
2022-09-18T20:22:07.302Z,2.50
2022-09-18T20:24:56.468Z,3.80
2022-09-18T20:27:45.395Z,2.97
2022-09-18T20:30:34.259Z,2.43
2022-09-18T20:33:23.134Z,2.67
2022-09-18T20:36:12.686Z,2.80
2022-09-18T20:39:03.579Z,2.60
2022-09-18T20:41:52.441Z,2.67
2022-09-18T20:44:41.314Z,2.30
2022-09-18T20:47:34.802Z,2.73
2022-09-18T20:50:27.631Z,2.70
2022-09-18T20:53:16.402Z,2.50
2022-09-18T20:56:06.826Z,3.23
2022-09-18T20:58:56.595Z,3.23
2022-09-18T21:01:45.956Z,2.50
2022-09-18T21:04:34.790Z,3.40
2022-09-18T21:07:28.414Z,2.50
2022-09-18T21:10:17.283Z,2.27
2022-09-18T21:13:07.462Z,3.00
2022-09-18T21:15:59.570Z,2.53
2022-09-18T21:18:48.720Z,2.10
2022-09-18T21:21:37.608Z,2.60
2022-09-18T21:24:27.170Z,3.10
2022-09-18T21:27:16.263Z,2.60
2022-09-18T21:30:07.698Z,2.57
2022-09-18T21:32:57.230Z,2.97
2022-09-18T21:35:54.728Z,2.60
2022-09-18T21:38:43.993Z,2.80
2022-09-18T21:41:39.281Z,2.80
2022-09-18T21:44:29.012Z,3.10
2022-09-18T21:47:19.898Z,3.17
2022-09-18T21:50:09.093Z,3.20
2022-09-18T21:52:57.886Z,3.30
2022-09-18T21:55:48.331Z,3.10
2022-09-18T21:58:40.652Z,3.63
2022-09-18T22:01:32.058Z,4.10
2022-09-18T22:04:23.029Z,3.80
2022-09-18T22:07:12.155Z,3.13
2022-09-18T22:10:01.028Z,3.00
2022-09-18T22:12:49.978Z,2.20
2022-09-18T22:15:38.780Z,2.80
2022-09-18T22:18:27.758Z,2.23
2022-09-18T22:21:20.353Z,2.20
2022-09-18T22:24:11.140Z,2.63
2022-09-18T22:27:02.430Z,3.17
2022-09-18T22:29:52.201Z,2.70
2022-09-18T22:32:41.250Z,2.43
2022-09-18T22:35:30.061Z,3.10
2022-09-18T22:38:20.270Z,2.37
2022-09-18T22:41:10.033Z,2.40
2022-09-18T22:43:59.447Z,3.03
2022-09-18T22:46:48.539Z,2.40
2022-09-18T22:49:38.174Z,3.50
2022-09-18T22:52:27.018Z,2.00
2022-09-18T22:55:17.432Z,2.40
2022-09-18T22:58:06.516Z,2.83
2022-09-18T23:00:55.321Z,3.00
2022-09-18T23:03:44.246Z,3.03
2022-09-18T23:06:34.316Z,2.80
2022-09-18T23:09:23.316Z,2.60
2022-09-18T23:12:13.558Z,2.57
2022-09-18T23:15:02.406Z,4.03
2022-09-18T23:17:51.448Z,3.00
2022-09-18T23:20:40.319Z,3.17
2022-09-18T23:23:30.295Z,2.53
2022-09-18T23:26:23.091Z,2.67
2022-09-18T23:29:14.159Z,2.03
2022-09-18T23:32:04.661Z,2.30
2022-09-18T23:34:54.362Z,2.60
2022-09-18T23:37:43.153Z,2.80
2022-09-18T23:40:32.021Z,2.50
2022-09-18T23:43:20.883Z,3.63
2022-09-18T23:46:11.262Z,2.67
2022-09-18T23:49:00.460Z,2.60
2022-09-18T23:51:49.274Z,2.70
2022-09-18T23:54:38.104Z,2.60
2022-09-18T23:57:28.103Z,3.83
